Rechercher aéroport 
image banner adimage banner ad
image banner ad

EKVG - Vagar

Situé à All Faeroe Islands, Faroe Islands

ICAO - EKVG, IATA - FAE

Données fournies par Airmate  

Information générale

Coordonnées: N62°3'49" W7°16'38"
Élévation : 280 feet MSL.
Variation magnétique : -6.8° East
Voir autres Aéroports à (unassigned)

Données opérationnelles

Accessible au public
Heure actuelle UTC:
Heure actuelle locale:
Météo
METAR: EKVG 222120Z AUTO 35014KT 5000 RA FEW021/// FEW027/// 01/M01 Q0984 REFZRA
TAF: TAF EKVG 221412Z 2215/2221 35018G30KT 9999 -SHSN SCT015TCU BKN025 TEMPO 2215/2221 3000 SHSNRA BKN012CB BECMG 2218/2220 32017KT
Voir NOTAMs / SUP AIP / TFR affectant cet aéroport [VIEW]
Fréquences de communication: [VIEW]

Pistes:

Identifiant RWYQFULongueur (ft)Largeur (ft)SurfaceLDA (ft)
12118°590298ASPH5902
30298°590298ASPH5902

Coordonnées de l'aéroport

Adresse: All Faeroe Islands Faroe Islands

Vue satellite de EKVG